createdAt,value
2019-04-21T00:00:55.447Z,0.00
2019-04-21T00:01:52.168Z,0.00
2019-04-21T00:02:50.908Z,0.00
2019-04-21T00:03:53.912Z,0.00
2019-04-21T00:05:06.098Z,0.00
2019-04-21T00:06:09.140Z,0.00
2019-04-21T00:07:11.202Z,0.00
2019-04-21T00:08:16.600Z,0.00
2019-04-21T00:09:11.439Z,0.00
2019-04-21T00:10:13.600Z,0.00
2019-04-21T00:11:09.426Z,0.00
2019-04-21T00:12:11.966Z,0.00
2019-04-21T00:13:02.685Z,0.00
2019-04-21T00:14:01.005Z,0.00
2019-04-21T00:15:01.960Z,0.00
2019-04-21T00:15:57.120Z,0.00
2019-04-21T00:16:57.481Z,0.00
2019-04-21T00:17:54.157Z,0.00
2019-04-21T00:18:58.067Z,0.00
2019-04-21T00:19:49.678Z,0.00
2019-04-21T00:20:52.709Z,0.00
2019-04-21T00:21:55.333Z,0.00
2019-04-21T00:23:02.799Z,0.00
2019-04-21T00:24:05.872Z,0.00
2019-04-21T00:25:08.958Z,0.00
2019-04-21T00:26:01.971Z,0.00
2019-04-21T00:27:05.625Z,0.00
2019-04-21T00:28:09.612Z,0.00
2019-04-21T00:29:14.085Z,0.00
2019-04-21T00:30:13.341Z,0.00
2019-04-21T00:31:06.571Z,0.00
2019-04-21T00:32:01.773Z,0.00
2019-04-21T00:32:56.423Z,0.00
2019-04-21T00:33:50.174Z,0.00
2019-04-21T00:34:56.592Z,0.00
2019-04-21T00:35:54.959Z,0.00
2019-04-21T00:37:00.105Z,0.00
2019-04-21T00:38:09.675Z,0.00
2019-04-21T00:39:23.207Z,0.00
2019-04-21T00:40:10.384Z,0.00
2019-04-21T00:41:13.437Z,0.00
2019-04-21T00:43:06.438Z,0.00
2019-04-21T00:44:00.756Z,0.00
2019-04-21T00:45:03.515Z,0.00
2019-04-21T00:45:59.977Z,0.00
2019-04-21T00:47:03.075Z,0.00
2019-04-21T00:48:14.657Z,0.00
2019-04-21T00:49:05.938Z,0.00
2019-04-21T00:50:25.603Z,0.00
2019-04-21T00:51:33.245Z,0.00
2019-04-21T00:52:24.671Z,0.00
2019-04-21T00:53:33.827Z,0.00
2019-04-21T00:54:21.144Z,0.00
2019-04-21T00:55:23.429Z,0.00
2019-04-21T00:56:16.716Z,0.00
2019-04-21T00:57:14.502Z,0.00
2019-04-21T00:58:10.683Z,0.00
2019-04-21T00:59:18.253Z,0.00
2019-04-21T01:00:11.650Z,0.00
2019-04-21T01:01:07.439Z,0.00
2019-04-21T01:03:12.894Z,0.00
2019-04-21T01:04:11.312Z,0.00
2019-04-21T01:05:11.121Z,0.00
2019-04-21T01:06:14.302Z,0.00
2019-04-21T01:07:10.894Z,0.00
2019-04-21T01:08:09.428Z,0.00
2019-04-21T01:09:07.658Z,0.00
2019-04-21T01:10:01.410Z,0.00
2019-04-21T01:11:11.723Z,0.00
2019-04-21T01:12:07.830Z,0.00
2019-04-21T01:13:14.038Z,0.00
2019-04-21T01:14:13.176Z,0.00
2019-04-21T01:15:16.402Z,0.00
2019-04-21T01:16:10.164Z,0.00
2019-04-21T01:17:17.074Z,0.00
2019-04-21T01:18:12.952Z,0.00
2019-04-21T01:19:08.901Z,0.00
2019-04-21T01:20:05.523Z,0.00
2019-04-21T01:20:47.229Z,0.00
2019-04-21T01:21:47.156Z,0.00
2019-04-21T01:22:47.124Z,0.00
2019-04-21T01:23:48.533Z,0.00
2019-04-21T01:24:56.999Z,0.00
2019-04-21T01:26:03.192Z,0.00
2019-04-21T01:26:58.068Z,0.00
2019-04-21T01:28:04.971Z,0.00
2019-04-21T01:29:10.428Z,0.00
2019-04-21T01:30:14.290Z,0.00
2019-04-21T01:31:03.446Z,0.00
2019-04-21T01:32:10.452Z,0.00
2019-04-21T01:33:07.650Z,0.00
2019-04-21T01:34:13.396Z,0.00
2019-04-21T01:35:08.407Z,0.00
2019-04-21T01:36:03.909Z,0.00
2019-04-21T01:37:05.914Z,0.00
2019-04-21T01:38:06.897Z,0.00
2019-04-21T01:39:13.111Z,0.00
2019-04-21T01:40:08.445Z,0.00
2019-04-21T01:41:12.970Z,0.00
2019-04-21T01:42:11.259Z,0.00
2019-04-21T01:43:11.890Z,0.00
2019-04-21T01:44:07.989Z,0.00
2019-04-21T01:45:07.673Z,0.00
2019-04-21T01:46:06.686Z,0.00
2019-04-21T01:47:04.864Z,0.00
2019-04-21T01:48:05.146Z,0.00
2019-04-21T01:49:01.526Z,0.00
2019-04-21T01:49:56.782Z,0.00
2019-04-21T01:51:01.564Z,0.00
2019-04-21T01:52:17.878Z,0.00
2019-04-21T01:53:11.131Z,0.00
2019-04-21T01:54:12.475Z,0.00
2019-04-21T01:55:09.071Z,0.00
2019-04-21T01:56:08.256Z,0.00
2019-04-21T01:57:02.133Z,0.00
2019-04-21T01:58:03.310Z,0.00
2019-04-21T01:58:54.019Z,0.00
2019-04-21T01:59:58.870Z,0.00
2019-04-21T02:01:03.547Z,0.00
2019-04-21T02:02:06.203Z,0.00
2019-04-21T02:03:09.888Z,0.00
2019-04-21T02:04:02.730Z,0.00
2019-04-21T02:05:13.420Z,0.00
2019-04-21T02:06:15.609Z,0.00
2019-04-21T02:07:13.026Z,0.00
2019-04-21T02:08:05.509Z,0.00
2019-04-21T02:09:03.372Z,0.00
2019-04-21T02:10:11.212Z,0.00
2019-04-21T02:11:11.178Z,0.00
2019-04-21T02:12:08.754Z,0.00
2019-04-21T02:13:03.639Z,0.00
2019-04-21T02:14:26.307Z,0.00
2019-04-21T02:15:11.096Z,0.00
2019-04-21T02:16:06.772Z,0.00
2019-04-21T02:17:10.339Z,0.00
2019-04-21T02:18:09.167Z,0.00
2019-04-21T02:19:04.436Z,0.00
2019-04-21T02:20:00.088Z,0.00
2019-04-21T02:20:52.882Z,0.00
2019-04-21T02:22:01.907Z,0.00
2019-04-21T02:23:24.801Z,0.00
2019-04-21T02:24:13.624Z,0.00
2019-04-21T02:25:11.302Z,0.00
2019-04-21T02:26:09.836Z,0.00
2019-04-21T02:27:07.544Z,0.00
2019-04-21T02:28:13.401Z,0.00
2019-04-21T02:29:08.567Z,0.00
2019-04-21T02:30:14.250Z,0.00
2019-04-21T02:32:14.411Z,0.00
2019-04-21T02:33:19.493Z,0.00
2019-04-21T02:35:20.821Z,0.00
2019-04-21T02:38:20.542Z,0.00
2019-04-21T02:39:34.660Z,0.00
2019-04-21T02:40:17.350Z,0.00
2019-04-21T02:41:13.155Z,0.00
2019-04-21T02:42:11.552Z,0.00
2019-04-21T02:43:19.093Z,0.00
2019-04-21T02:44:23.407Z,0.00
2019-04-21T02:45:19.105Z,0.00
2019-04-21T02:47:16.663Z,0.00
2019-04-21T02:49:22.067Z,0.00
2019-04-21T02:50:19.128Z,0.00
2019-04-21T02:51:19.370Z,0.00
2019-04-21T02:52:27.386Z,0.00
2019-04-21T02:53:18.426Z,0.00
2019-04-21T02:56:18.507Z,0.00
2019-04-21T02:58:17.887Z,0.00
2019-04-21T02:59:17.127Z,0.00
2019-04-21T03:00:14.984Z,0.00
2019-04-21T03:01:24.166Z,0.00
2019-04-21T03:02:14.498Z,0.00
2019-04-21T03:03:13.347Z,0.00
2019-04-21T03:05:20.803Z,0.00
2019-04-21T03:08:19.063Z,0.00
2019-04-21T03:09:18.274Z,0.00
2019-04-21T03:10:20.549Z,0.00
2019-04-21T03:12:22.590Z,0.00
2019-04-21T03:13:23.459Z,0.00
2019-04-21T03:14:17.072Z,0.00
2019-04-21T03:15:21.945Z,0.00
2019-04-21T03:17:17.861Z,0.00
2019-04-21T03:18:19.557Z,0.00
2019-04-21T03:19:15.626Z,0.00
2019-04-21T03:20:19.361Z,0.00
2019-04-21T03:21:15.450Z,0.00
2019-04-21T03:22:19.994Z,0.00
2019-04-21T03:23:20.947Z,0.00
2019-04-21T03:24:41.298Z,0.00
2019-04-21T03:25:25.352Z,0.00
2019-04-21T03:26:20.412Z,0.00
2019-04-21T03:28:20.176Z,0.00
2019-04-21T03:29:19.820Z,0.00
2019-04-21T03:35:43.831Z,0.00
2019-04-21T03:36:41.465Z,0.00
2019-04-21T03:37:16.920Z,0.00
2019-04-21T03:39:11.363Z,0.00
2019-04-21T03:41:11.535Z,0.00
2019-04-21T03:42:32.826Z,0.00
2019-04-21T03:43:16.720Z,0.00
2019-04-21T03:44:14.688Z,0.00
2019-04-21T03:45:32.683Z,0.00
2019-04-21T03:46:19.473Z,0.00
2019-04-21T03:47:18.811Z,0.00
2019-04-21T03:49:23.150Z,0.00
2019-04-21T03:50:13.417Z,0.00
2019-04-21T03:51:23.109Z,0.00
2019-04-21T03:52:19.427Z,5.63
2019-04-21T03:53:18.556Z,5.63
2019-04-21T03:54:09.274Z,5.63
2019-04-21T03:56:16.118Z,5.63
2019-04-21T03:59:03.944Z,11.25
2019-04-21T04:00:30.469Z,11.25
2019-04-21T04:01:08.015Z,11.25
2019-04-21T04:02:18.576Z,11.25
2019-04-21T04:04:19.612Z,16.88
2019-04-21T04:05:31.323Z,16.88
2019-04-21T04:07:34.066Z,22.50
2019-04-21T04:08:22.783Z,22.50
2019-04-21T04:09:21.238Z,22.50
2019-04-21T04:11:23.440Z,28.13
2019-04-21T04:12:32.837Z,28.13
2019-04-21T04:13:19.348Z,33.75
2019-04-21T04:15:12.223Z,33.75
2019-04-21T04:18:23.418Z,45.00
2019-04-21T04:19:18.600Z,45.00
2019-04-21T04:20:19.204Z,45.00
2019-04-21T04:22:15.282Z,50.63
2019-04-21T04:23:10.356Z,56.25
2019-04-21T04:24:13.702Z,56.25
2019-04-21T04:25:13.376Z,61.88
2019-04-21T04:26:14.773Z,61.88
2019-04-21T04:27:20.272Z,61.88
2019-04-21T04:28:28.879Z,67.50
2019-04-21T04:29:12.391Z,67.50
2019-04-21T04:30:20.009Z,73.13
2019-04-21T04:31:22.318Z,73.13
2019-04-21T04:32:04.035Z,78.75
2019-04-21T04:33:21.044Z,78.75
2019-04-21T04:34:14.319Z,84.38
2019-04-21T04:35:14.480Z,84.38
2019-04-21T04:36:36.006Z,84.38
2019-04-21T04:37:26.233Z,90.00
2019-04-21T04:38:13.096Z,90.00
2019-04-21T04:39:25.620Z,95.63
2019-04-21T04:40:13.942Z,95.63
2019-04-21T04:41:14.571Z,101.25
2019-04-21T04:43:17.536Z,101.25
2019-04-21T04:44:39.083Z,106.88
2019-04-21T04:45:15.756Z,106.88
2019-04-21T04:46:07.173Z,112.50
2019-04-21T04:47:16.749Z,112.50
2019-04-21T04:49:23.725Z,118.13
2019-04-21T04:50:00.723Z,118.13
2019-04-21T04:51:36.475Z,123.75
2019-04-21T04:53:15.678Z,129.38
2019-04-21T04:54:07.193Z,129.38
2019-04-21T04:55:12.019Z,135.00
2019-04-21T04:56:10.496Z,135.00
2019-04-21T04:57:13.859Z,135.00
2019-04-21T04:58:16.118Z,140.63
2019-04-21T04:59:33.755Z,140.63
2019-04-21T05:00:21.383Z,146.25
2019-04-21T05:02:20.488Z,146.25
2019-04-21T05:03:19.138Z,151.88
2019-04-21T05:04:16.035Z,151.88
2019-04-21T05:05:15.662Z,157.50
2019-04-21T05:06:28.085Z,157.50
2019-04-21T05:07:16.929Z,157.50
2019-04-21T05:08:34.414Z,163.13
2019-04-21T05:10:11.690Z,168.75
2019-04-21T05:11:20.864Z,168.75
2019-04-21T05:12:07.703Z,168.75
2019-04-21T05:13:11.829Z,180.00
2019-04-21T05:15:10.067Z,230.63
2019-04-21T05:16:16.321Z,309.38
2019-04-21T05:17:14.273Z,337.50
2019-04-21T05:18:05.389Z,303.75
2019-04-21T05:19:16.123Z,258.75
2019-04-21T05:20:17.005Z,286.88
2019-04-21T05:21:24.388Z,354.38
2019-04-21T05:22:14.155Z,399.38
2019-04-21T05:23:02.983Z,421.88
2019-04-21T05:23:55.913Z,433.13
2019-04-21T05:24:59.476Z,438.75
2019-04-21T05:25:53.333Z,427.50
2019-04-21T05:26:58.370Z,433.13
2019-04-21T05:27:54.055Z,450.00
2019-04-21T05:28:53.974Z,472.50
2019-04-21T05:30:10.233Z,500.63
2019-04-21T05:31:11.029Z,506.25
2019-04-21T05:32:00.520Z,506.25
2019-04-21T05:33:05.626Z,495.00
2019-04-21T05:34:07.543Z,495.00
2019-04-21T05:35:01.633Z,506.25
2019-04-21T05:36:01.863Z,511.88
2019-04-21T05:37:04.094Z,511.88
2019-04-21T05:38:03.067Z,523.13
2019-04-21T05:38:57.087Z,551.25
2019-04-21T05:39:57.229Z,545.63
2019-04-21T05:40:52.386Z,545.63
2019-04-21T05:41:47.455Z,556.88
2019-04-21T05:42:55.257Z,579.38
2019-04-21T05:46:04.789Z,596.25
2019-04-21T05:48:12.244Z,641.25
2019-04-21T05:49:00.919Z,641.25
2019-04-21T05:49:55.292Z,624.38
2019-04-21T05:51:00.184Z,618.75
2019-04-21T05:51:55.770Z,635.63
2019-04-21T05:52:57.525Z,646.88
2019-04-21T05:54:09.275Z,646.88
2019-04-21T05:55:06.229Z,658.13
2019-04-21T05:56:08.291Z,680.63
2019-04-21T05:57:03.331Z,691.88
2019-04-21T05:58:02.537Z,686.25
2019-04-21T05:58:58.058Z,686.25
2019-04-21T06:00:06.279Z,691.88
2019-04-21T06:02:07.190Z,731.25
2019-04-21T06:03:03.717Z,759.38
2019-04-21T06:04:05.526Z,787.50
2019-04-21T06:05:17.891Z,776.25
2019-04-21T06:06:10.787Z,770.63
2019-04-21T06:07:06.038Z,759.38
2019-04-21T06:08:00.405Z,748.13
2019-04-21T06:09:05.333Z,765.00
2019-04-21T06:09:59.593Z,804.38
2019-04-21T06:11:00.170Z,838.13
2019-04-21T06:12:03.416Z,849.38
2019-04-21T06:13:07.114Z,849.38
2019-04-21T06:14:02.496Z,826.88
2019-04-21T06:15:08.790Z,781.88
2019-04-21T06:16:03.559Z,798.75
2019-04-21T06:17:04.587Z,855.00
2019-04-21T06:18:05.363Z,933.75
2019-04-21T06:19:03.328Z,984.38
2019-04-21T06:20:01.374Z,990.00
2019-04-21T06:20:59.480Z,956.25
2019-04-21T06:21:57.453Z,933.75
2019-04-21T06:23:04.235Z,916.88
2019-04-21T06:23:59.227Z,928.13
2019-04-21T06:27:11.603Z,1029.38
2019-04-21T06:28:00.685Z,1040.63
2019-04-21T06:28:56.854Z,1018.13
2019-04-21T06:30:01.884Z,1001.25
2019-04-21T06:31:11.169Z,978.75
2019-04-21T06:32:20.401Z,978.75
2019-04-21T06:33:19.643Z,1001.25
2019-04-21T06:34:01.794Z,1018.13
2019-04-21T06:35:23.706Z,1046.25
2019-04-21T06:36:31.908Z,1063.13
2019-04-21T06:37:14.898Z,1063.13
2019-04-21T06:38:10.387Z,1068.75
2019-04-21T06:41:10.371Z,1074.38
2019-04-21T06:41:58.410Z,1096.88
2019-04-21T06:43:10.979Z,1125.00
2019-04-21T06:44:01.480Z,1141.88
2019-04-21T06:46:02.222Z,1181.25
2019-04-21T06:47:02.644Z,1186.88
2019-04-21T06:48:06.320Z,1192.50
2019-04-21T06:50:00.522Z,1192.50
2019-04-21T06:51:04.911Z,1203.75
2019-04-21T06:52:02.405Z,1198.13
2019-04-21T06:53:25.217Z,1220.63
2019-04-21T06:54:04.346Z,1248.75
2019-04-21T06:55:06.453Z,1271.25
2019-04-21T06:56:02.116Z,1276.88
2019-04-21T06:56:58.528Z,1271.25
2019-04-21T06:58:03.747Z,1260.00
2019-04-21T06:59:03.194Z,1260.00
2019-04-21T06:59:58.667Z,1260.00
2019-04-21T07:00:56.177Z,1254.38
2019-04-21T07:02:08.334Z,1243.13
2019-04-21T07:03:11.395Z,1254.38
2019-04-21T07:04:08.451Z,1271.25
2019-04-21T07:05:02.333Z,1299.38
2019-04-21T07:06:03.531Z,1327.50
2019-04-21T07:07:00.517Z,1350.00
2019-04-21T07:08:16.979Z,1355.63
2019-04-21T07:09:10.148Z,1366.88
2019-04-21T07:10:01.491Z,1361.25
2019-04-21T07:11:55.001Z,1333.13
2019-04-21T07:12:59.275Z,1366.88
2019-04-21T07:14:16.205Z,1372.50
2019-04-21T07:14:59.579Z,1372.50
2019-04-21T07:16:07.304Z,1378.13
2019-04-21T07:17:05.069Z,1355.63
2019-04-21T07:18:00.108Z,1366.88
2019-04-21T07:19:09.942Z,1400.63
2019-04-21T07:20:03.190Z,1445.63
2019-04-21T07:21:00.197Z,1473.75
2019-04-21T07:21:57.385Z,1496.25
2019-04-21T07:23:01.762Z,1485.00
2019-04-21T07:25:03.014Z,1473.75
2019-04-21T07:26:01.020Z,1513.13
2019-04-21T07:27:02.608Z,1518.75
2019-04-21T07:27:58.079Z,1552.50
2019-04-21T07:29:01.826Z,1552.50
2019-04-21T07:30:06.628Z,1546.88
2019-04-21T07:31:03.401Z,1535.63
2019-04-21T07:33:07.747Z,1501.88
2019-04-21T07:34:07.745Z,1518.75
2019-04-21T07:35:03.936Z,1552.50
2019-04-21T07:35:59.642Z,1591.88
2019-04-21T07:37:00.985Z,1631.25
2019-04-21T07:37:59.088Z,1659.38
2019-04-21T07:38:57.262Z,1670.63
2019-04-21T07:39:54.997Z,1670.63
2019-04-21T07:40:52.240Z,1642.50
2019-04-21T07:42:53.799Z,1620.00
2019-04-21T07:43:50.989Z,1625.63
2019-04-21T07:44:55.375Z,1648.13
2019-04-21T07:45:52.765Z,1659.38
2019-04-21T07:46:49.082Z,1681.88
2019-04-21T07:47:57.895Z,1721.25
2019-04-21T07:48:58.541Z,1743.75
2019-04-21T07:50:01.031Z,1749.38
2019-04-21T07:51:02.144Z,1777.50
2019-04-21T07:52:08.971Z,1794.38
2019-04-21T07:53:01.019Z,1805.63
2019-04-21T07:54:08.437Z,1811.25
2019-04-21T07:55:07.944Z,1811.25
2019-04-21T07:55:38.035Z,1777.50
2019-04-21T07:56:43.856Z,1755.00
2019-04-21T07:57:52.156Z,1726.88
2019-04-21T07:59:02.814Z,1698.75
2019-04-21T08:00:12.491Z,1704.38
2019-04-21T08:01:55.047Z,1777.50
2019-04-21T08:02:58.173Z,1766.25
2019-04-21T08:04:03.647Z,1788.75
2019-04-21T08:05:02.665Z,1805.63
2019-04-21T08:05:58.620Z,1805.63
2019-04-21T08:06:55.644Z,1816.88
2019-04-21T08:08:01.437Z,1839.38
2019-04-21T08:08:52.954Z,1861.88
2019-04-21T08:09:55.083Z,1890.00
2019-04-21T08:10:50.608Z,1861.88
2019-04-21T08:11:52.320Z,1833.75
2019-04-21T08:12:54.181Z,1850.63
2019-04-21T08:13:57.913Z,1850.63
2019-04-21T08:15:05.881Z,1861.88
2019-04-21T08:15:57.752Z,1873.13
2019-04-21T08:16:57.209Z,1873.13
2019-04-21T08:17:53.366Z,1873.13
2019-04-21T08:19:05.354Z,1906.88
2019-04-21T08:19:53.045Z,1940.63
2019-04-21T08:20:53.403Z,1951.88
2019-04-21T08:21:57.636Z,1929.38
2019-04-21T08:22:59.593Z,1923.75
2019-04-21T08:23:55.688Z,1951.88
2019-04-21T08:24:59.442Z,1957.50
2019-04-21T08:26:07.868Z,1912.50
2019-04-21T08:26:57.407Z,1890.00
2019-04-21T08:29:06.677Z,1839.38
2019-04-21T08:29:59.586Z,1794.38
2019-04-21T08:30:54.267Z,1794.38
2019-04-21T08:32:04.213Z,1833.75
2019-04-21T08:33:09.223Z,1878.75
2019-04-21T08:34:01.696Z,1935.00
2019-04-21T08:35:08.006Z,2008.13
2019-04-21T08:36:11.251Z,2047.50
2019-04-21T08:36:55.323Z,2053.13
2019-04-21T08:37:55.203Z,2047.50
2019-04-21T08:39:03.280Z,2053.13
2019-04-21T08:40:04.465Z,2053.13
2019-04-21T08:40:59.069Z,2064.38
2019-04-21T08:41:58.958Z,2075.63
2019-04-21T08:42:57.118Z,2109.38
2019-04-21T08:43:56.063Z,2137.50
2019-04-21T08:44:52.462Z,2160.00
2019-04-21T08:45:57.192Z,2160.00
2019-04-21T08:47:02.627Z,2148.75
2019-04-21T08:47:58.252Z,2131.88
2019-04-21T08:48:56.613Z,2120.63
2019-04-21T08:49:53.933Z,2103.75
2019-04-21T08:51:05.640Z,2081.25
2019-04-21T08:52:01.732Z,2086.88
2019-04-21T08:52:57.017Z,2075.63
2019-04-21T08:54:55.818Z,2064.38
2019-04-21T08:56:05.768Z,2081.25
2019-04-21T08:56:57.445Z,2086.88
2019-04-21T08:58:58.519Z,2030.63
2019-04-21T08:59:58.644Z,2025.00
2019-04-21T09:01:04.075Z,2047.50
2019-04-21T09:01:55.562Z,2047.50
2019-04-21T09:02:58.970Z,2070.00
2019-04-21T09:03:56.559Z,2098.13
2019-04-21T09:04:54.144Z,2143.13
2019-04-21T09:05:59.681Z,2188.13
2019-04-21T09:08:00.338Z,2210.63
2019-04-21T09:08:58.652Z,2199.38
2019-04-21T09:09:56.123Z,2221.88
2019-04-21T09:10:55.959Z,2233.13
2019-04-21T09:11:54.129Z,2205.00
2019-04-21T09:12:52.247Z,2199.38
2019-04-21T09:13:54.853Z,2176.88
2019-04-21T09:14:55.316Z,2160.00
2019-04-21T09:16:54.458Z,2171.25
2019-04-21T09:17:47.367Z,2193.75
2019-04-21T09:18:48.709Z,2210.63
2019-04-21T09:20:00.668Z,2238.75
2019-04-21T09:20:58.027Z,2255.63
2019-04-21T09:21:54.934Z,2295.00
2019-04-21T09:22:55.712Z,2295.00
2019-04-21T09:23:54.078Z,2306.25
2019-04-21T09:24:52.545Z,2323.13
2019-04-21T09:25:57.594Z,2340.00
2019-04-21T09:26:51.379Z,2323.13
2019-04-21T09:27:46.785Z,2340.00
2019-04-21T09:28:47.984Z,2356.88
2019-04-21T09:29:40.623Z,2368.13
2019-04-21T09:30:43.934Z,2356.88
2019-04-21T09:31:39.980Z,2351.25
2019-04-21T09:32:36.670Z,2368.13
2019-04-21T09:33:41.262Z,2356.88
2019-04-21T09:34:40.417Z,2340.00
2019-04-21T09:35:35.894Z,2334.38
2019-04-21T09:36:42.745Z,2328.75
2019-04-21T09:37:44.404Z,2317.50
2019-04-21T09:38:38.199Z,2311.88
2019-04-21T09:39:41.882Z,2306.25
2019-04-21T09:40:40.113Z,2283.75
2019-04-21T09:41:38.214Z,2261.25
2019-04-21T09:42:43.014Z,2255.63
2019-04-21T09:43:43.083Z,2250.00
2019-04-21T09:44:38.615Z,2272.50
2019-04-21T09:45:35.597Z,2289.38
2019-04-21T09:46:41.855Z,2300.63
2019-04-21T09:47:42.278Z,2317.50
2019-04-21T09:48:49.146Z,2368.13
2019-04-21T09:49:37.202Z,2396.25
2019-04-21T09:50:36.269Z,2396.25
2019-04-21T09:51:34.723Z,2379.38
2019-04-21T09:52:41.737Z,2368.13
2019-04-21T09:53:38.145Z,2340.00
2019-04-21T09:54:45.253Z,2328.75
2019-04-21T09:55:42.986Z,2317.50
2019-04-21T09:56:45.465Z,2300.63
2019-04-21T09:57:41.661Z,2295.00
2019-04-21T09:58:40.329Z,2300.63
2019-04-21T09:59:38.667Z,2323.13
2019-04-21T10:00:46.348Z,2356.88
2019-04-21T10:01:49.073Z,2362.50
2019-04-21T10:02:42.754Z,2373.75
2019-04-21T10:03:42.812Z,2379.38
2019-04-21T10:04:35.668Z,2385.00
2019-04-21T10:05:34.523Z,2407.50
2019-04-21T10:06:35.005Z,2396.25
2019-04-21T10:07:38.481Z,2390.63
2019-04-21T10:08:34.496Z,2390.63
2019-04-21T10:09:35.569Z,2379.38
2019-04-21T10:10:34.449Z,2368.13
2019-04-21T10:11:35.534Z,2368.13
2019-04-21T10:12:35.077Z,2396.25
2019-04-21T10:13:34.407Z,2430.00
2019-04-21T10:14:34.394Z,2446.88
2019-04-21T10:15:35.526Z,2469.38
2019-04-21T10:16:34.395Z,2469.38
2019-04-21T10:17:35.043Z,2480.63
2019-04-21T10:18:35.753Z,2469.38
2019-04-21T10:19:34.319Z,2452.50
2019-04-21T10:20:34.305Z,2435.63
2019-04-21T10:21:34.293Z,2418.75
2019-04-21T10:22:35.070Z,2373.75
2019-04-21T10:23:34.261Z,2373.75
2019-04-21T10:24:34.247Z,2356.88
2019-04-21T10:25:34.564Z,2390.63
2019-04-21T10:26:35.454Z,2385.00
2019-04-21T10:27:34.881Z,2390.63
2019-04-21T10:28:35.131Z,2407.50
2019-04-21T10:29:35.822Z,2390.63
2019-04-21T10:30:34.770Z,2413.13
2019-04-21T10:31:34.646Z,2424.38
2019-04-21T10:32:34.517Z,2435.63
2019-04-21T10:33:34.514Z,2452.50
2019-04-21T10:34:34.838Z,2458.13
2019-04-21T10:35:35.224Z,2435.63
2019-04-21T10:36:35.128Z,2424.38
2019-04-21T10:37:45.601Z,2407.50
2019-04-21T10:38:40.527Z,2430.00
2019-04-21T10:39:34.031Z,2424.38
2019-04-21T10:40:36.861Z,2418.75
2019-04-21T10:41:35.146Z,2452.50
2019-04-21T10:42:35.367Z,2458.13
2019-04-21T10:43:35.472Z,2463.75
2019-04-21T10:44:34.709Z,2413.13
2019-04-21T10:45:34.911Z,2385.00
2019-04-21T10:46:35.007Z,2356.88
2019-04-21T10:47:34.606Z,2334.38
2019-04-21T10:48:35.053Z,2328.75
2019-04-21T10:49:34.897Z,2289.38
2019-04-21T10:50:34.765Z,2255.63
2019-04-21T10:51:35.007Z,2182.50
2019-04-21T10:52:34.769Z,2098.13
2019-04-21T10:53:34.568Z,2030.63
2019-04-21T10:54:57.278Z,2036.25
2019-04-21T10:55:53.514Z,2058.75
2019-04-21T10:56:38.782Z,2086.88
2019-04-21T10:57:34.897Z,2126.25
2019-04-21T10:58:34.178Z,2205.00
2019-04-21T10:59:33.737Z,2272.50
2019-04-21T11:00:34.323Z,2334.38
2019-04-21T11:01:34.748Z,2328.75
2019-04-21T11:02:34.797Z,2379.38
2019-04-21T11:03:35.132Z,2396.25
2019-04-21T11:04:37.333Z,2441.25
2019-04-21T11:05:34.493Z,2452.50
2019-04-21T11:06:34.748Z,2458.13
2019-04-21T11:07:40.255Z,2441.25
2019-04-21T11:08:37.956Z,2424.38
2019-04-21T11:09:33.942Z,2413.13
2019-04-21T11:10:34.055Z,2418.75
2019-04-21T11:11:34.143Z,2418.75
2019-04-21T11:12:33.544Z,2430.00
2019-04-21T11:13:34.769Z,2446.88
2019-04-21T11:14:33.532Z,2435.63
2019-04-21T11:15:33.500Z,2486.25
2019-04-21T11:16:33.485Z,2480.63
2019-04-21T11:17:34.185Z,2475.00
2019-04-21T11:18:33.976Z,2430.00
2019-04-21T11:19:34.772Z,2396.25
2019-04-21T11:20:33.425Z,2368.13
2019-04-21T11:21:34.523Z,2368.13
2019-04-21T11:22:34.025Z,2362.50
2019-04-21T11:23:33.387Z,2368.13
2019-04-21T11:24:33.440Z,2373.75
2019-04-21T11:25:33.751Z,2362.50
2019-04-21T11:26:33.789Z,2373.75
2019-04-21T11:27:33.319Z,2340.00
2019-04-21T11:28:34.504Z,2328.75
2019-04-21T11:29:33.290Z,2328.75
2019-04-21T11:30:33.697Z,2328.75
2019-04-21T11:31:33.459Z,2356.88
2019-04-21T11:32:33.247Z,2368.13
2019-04-21T11:33:33.440Z,2379.38
2019-04-21T11:34:33.489Z,2396.25
2019-04-21T11:35:33.198Z,2446.88
2019-04-21T11:36:33.260Z,2458.13
2019-04-21T11:37:34.495Z,2418.75
2019-04-21T11:38:35.235Z,2435.63
2019-04-21T11:39:42.144Z,2452.50
2019-04-21T11:40:34.044Z,2452.50
2019-04-21T11:41:34.016Z,2441.25
2019-04-21T11:42:33.563Z,2446.88
2019-04-21T11:43:33.078Z,2446.88
2019-04-21T11:44:33.183Z,2452.50
2019-04-21T11:45:34.532Z,2424.38
2019-04-21T11:46:34.234Z,2390.63
2019-04-21T11:47:34.199Z,2351.25
2019-04-21T11:48:34.424Z,2323.13
2019-04-21T11:49:32.989Z,2289.38
2019-04-21T11:50:32.973Z,2289.38
2019-04-21T11:51:33.325Z,2289.38
2019-04-21T11:52:32.945Z,2272.50
2019-04-21T11:53:33.004Z,2261.25
2019-04-21T11:54:32.961Z,2244.38
2019-04-21T11:55:36.787Z,2233.13
2019-04-21T11:56:32.882Z,2250.00
2019-04-21T11:57:38.357Z,2266.88
2019-04-21T11:58:33.749Z,2283.75
2019-04-21T11:59:33.445Z,2300.63
2019-04-21T12:00:33.590Z,2334.38
2019-04-21T12:01:33.786Z,2340.00
2019-04-21T12:02:33.220Z,2317.50
2019-04-21T12:03:33.656Z,2283.75
2019-04-21T12:04:33.680Z,2244.38
2019-04-21T12:05:33.059Z,2227.50
2019-04-21T12:06:40.884Z,2216.25
2019-04-21T12:07:33.411Z,2210.63
2019-04-21T12:08:39.318Z,2216.25
2019-04-21T12:09:33.306Z,2244.38
2019-04-21T12:10:33.374Z,2238.75
2019-04-21T12:11:33.694Z,2250.00
2019-04-21T12:12:32.983Z,2266.88
2019-04-21T12:13:32.628Z,2278.13
2019-04-21T12:14:32.613Z,2289.38
2019-04-21T12:15:32.598Z,2272.50
2019-04-21T12:16:33.133Z,2250.00
2019-04-21T12:17:32.570Z,2227.50
2019-04-21T12:18:33.998Z,2221.88
2019-04-21T12:19:32.668Z,2221.88
2019-04-21T12:20:33.442Z,2216.25
2019-04-21T12:21:46.598Z,1968.75
2019-04-21T12:22:34.086Z,2193.75
2019-04-21T12:23:32.539Z,2193.75
2019-04-21T12:24:33.388Z,2193.75
2019-04-21T12:25:33.342Z,2171.25
2019-04-21T12:26:33.768Z,2131.88
2019-04-21T12:27:32.420Z,2086.88
2019-04-21T12:28:32.460Z,2075.63
2019-04-21T12:29:33.581Z,2064.38
2019-04-21T12:30:33.549Z,2070.00
2019-04-21T12:31:33.650Z,2075.63
2019-04-21T12:32:32.346Z,2092.50
2019-04-21T12:33:32.330Z,1968.75
2019-04-21T12:34:32.341Z,1980.00
2019-04-21T12:35:33.461Z,1822.50
2019-04-21T12:36:33.716Z,2103.75
2019-04-21T12:37:33.037Z,2109.38
2019-04-21T12:38:42.557Z,1996.88
2019-04-21T12:39:32.723Z,2109.38
2019-04-21T12:40:32.595Z,2120.63
2019-04-21T12:41:32.871Z,2081.25
2019-04-21T12:42:32.447Z,2058.75
2019-04-21T12:43:32.796Z,2053.13
2019-04-21T12:44:32.169Z,2053.13
2019-04-21T12:45:32.152Z,2070.00
2019-04-21T12:46:32.136Z,2086.88
2019-04-21T12:47:32.258Z,2047.50
2019-04-21T12:48:32.107Z,2120.63
2019-04-21T12:49:32.094Z,2137.50
2019-04-21T12:50:32.158Z,2098.13
2019-04-21T12:51:33.383Z,2126.25
2019-04-21T12:52:32.148Z,2092.50
2019-04-21T12:53:32.034Z,2058.75
2019-04-21T12:54:33.127Z,2008.13
2019-04-21T12:55:38.416Z,1996.88
2019-04-21T12:56:31.988Z,1974.38
2019-04-21T12:57:33.240Z,1929.38
2019-04-21T12:58:33.111Z,1895.63
2019-04-21T12:59:32.881Z,1901.25
2019-04-21T13:00:33.252Z,1946.25
2019-04-21T13:01:32.775Z,1991.25
2019-04-21T13:02:31.899Z,2002.50
2019-04-21T13:03:32.217Z,1996.88
2019-04-21T13:04:31.869Z,1974.38
2019-04-21T13:05:31.854Z,1968.75
2019-04-21T13:06:31.913Z,1985.63
2019-04-21T13:07:33.148Z,1974.38
2019-04-21T13:08:41.526Z,2013.75
2019-04-21T13:09:32.517Z,2058.75
2019-04-21T13:10:31.778Z,2058.75
2019-04-21T13:11:33.062Z,2047.50
2019-04-21T13:12:33.176Z,2030.63
2019-04-21T13:13:32.188Z,2013.75
2019-04-21T13:14:31.718Z,1991.25
2019-04-21T13:15:31.705Z,1940.63
2019-04-21T13:16:31.786Z,1929.38
2019-04-21T13:17:31.691Z,1901.25
2019-04-21T13:18:31.662Z,1884.38
2019-04-21T13:19:31.654Z,1878.75
2019-04-21T13:20:31.629Z,1901.25
2019-04-21T13:21:31.998Z,1929.38
2019-04-21T13:22:32.082Z,1946.25
2019-04-21T13:23:31.584Z,1951.88
2019-04-21T13:24:31.867Z,1935.00
2019-04-21T13:25:31.784Z,1884.38
2019-04-21T13:26:39.431Z,1873.13
2019-04-21T13:27:31.523Z,1861.88
2019-04-21T13:28:32.526Z,1850.63
2019-04-21T13:29:32.283Z,1839.38
2019-04-21T13:30:32.651Z,1833.75